createdAt,value
2018-08-25T00:02:29.191Z,73.90
2018-08-25T00:05:32.453Z,73.90
2018-08-25T00:08:35.722Z,74.10
2018-08-25T00:11:39.144Z,73.80
2018-08-25T00:14:42.388Z,73.50
2018-08-25T00:17:45.810Z,73.10
2018-08-25T00:20:49.134Z,72.80
2018-08-25T00:23:52.298Z,72.50
2018-08-25T00:26:55.598Z,71.50
2018-08-25T00:29:58.839Z,71.70
2018-08-25T00:33:02.187Z,72.50
2018-08-25T00:36:05.531Z,72.40
2018-08-25T00:39:09.298Z,72.20
2018-08-25T00:42:12.538Z,72.40
2018-08-25T00:45:30.323Z,72.20
2018-08-25T00:48:33.571Z,71.90
2018-08-25T00:51:36.945Z,74.10
2018-08-25T00:54:40.317Z,73.80
2018-08-25T00:57:43.611Z,74.40
2018-08-25T01:00:47.218Z,74.00
2018-08-25T01:03:50.542Z,73.70
2018-08-25T01:06:53.838Z,73.10
2018-08-25T01:09:57.143Z,73.10
2018-08-25T01:13:00.571Z,73.90
2018-08-25T01:16:03.923Z,73.20
2018-08-25T01:19:07.928Z,73.00
2018-08-25T01:22:11.491Z,73.10
2018-08-25T01:25:14.763Z,73.20
2018-08-25T01:28:17.923Z,72.60
2018-08-25T01:31:21.294Z,72.50
2018-08-25T01:34:24.574Z,72.20
2018-08-25T01:37:27.867Z,72.20
2018-08-25T01:40:31.202Z,71.80
2018-08-25T01:43:34.483Z,71.90
2018-08-25T01:46:37.864Z,72.10
2018-08-25T01:49:41.253Z,72.40
2018-08-25T01:52:44.597Z,72.30
2018-08-25T01:55:47.778Z,72.60
2018-08-25T01:58:51.186Z,72.70
2018-08-25T02:01:54.438Z,72.80
2018-08-25T02:04:57.699Z,73.40
2018-08-25T02:08:03.924Z,73.30
2018-08-25T02:11:07.125Z,73.40
2018-08-25T02:14:11.028Z,73.60
2018-08-25T02:17:14.242Z,73.70
2018-08-25T02:20:17.451Z,73.90
2018-08-25T02:23:20.714Z,74.20
2018-08-25T02:26:24.055Z,74.00
2018-08-25T02:29:27.337Z,74.30
2018-08-25T02:32:30.651Z,74.30
2018-08-25T02:35:33.933Z,74.40
2018-08-25T02:38:37.318Z,74.40
2018-08-25T02:41:40.739Z,74.50
2018-08-25T02:44:44.146Z,74.30
2018-08-25T02:47:47.420Z,74.40
2018-08-25T02:50:50.733Z,74.70
2018-08-25T02:53:54.077Z,74.50
2018-08-25T02:56:57.355Z,74.80
2018-08-25T03:00:00.622Z,74.60
2018-08-25T03:03:03.843Z,74.80
2018-08-25T03:06:07.062Z,75.00
2018-08-25T03:09:11.801Z,74.70
2018-08-25T03:16:00.093Z,74.90
2018-08-25T03:19:03.153Z,74.90
2018-08-25T03:22:06.282Z,74.50
2018-08-25T03:25:09.363Z,74.30
2018-08-25T03:28:12.441Z,74.10
2018-08-25T03:31:15.499Z,74.40
2018-08-25T03:34:18.565Z,74.40
2018-08-25T03:37:21.637Z,74.60
2018-08-25T03:40:24.718Z,74.60
2018-08-25T03:43:27.816Z,74.70
2018-08-25T03:46:30.889Z,75.00
2018-08-25T03:49:33.966Z,75.40
2018-08-25T03:52:37.039Z,75.20
2018-08-25T03:55:40.118Z,76.30
2018-08-25T03:58:43.213Z,75.40
2018-08-25T04:01:46.309Z,75.10
2018-08-25T04:04:49.413Z,75.10
2018-08-25T04:07:52.492Z,75.10
2018-08-25T04:10:55.586Z,74.70
2018-08-25T04:13:58.693Z,75.60
2018-08-25T04:17:01.785Z,75.30
2018-08-25T04:20:05.140Z,75.00
2018-08-25T04:23:08.213Z,75.00
2018-08-25T04:26:11.291Z,74.80
2018-08-25T04:29:14.545Z,74.60
2018-08-25T04:32:17.654Z,74.40
2018-08-25T04:35:20.740Z,74.00
2018-08-25T04:38:23.803Z,73.60
2018-08-25T04:41:27.022Z,73.80
2018-08-25T04:44:30.093Z,73.70
2018-08-25T04:47:33.171Z,73.30
2018-08-25T04:50:36.502Z,73.40
2018-08-25T04:53:39.609Z,73.20
2018-08-25T04:56:42.700Z,73.50
2018-08-25T04:59:45.766Z,73.50
2018-08-25T05:02:48.884Z,73.70
2018-08-25T05:05:51.926Z,73.70
2018-08-25T05:08:55.061Z,74.00
2018-08-25T05:11:58.159Z,74.20
2018-08-25T05:15:01.239Z,74.10
2018-08-25T05:18:04.326Z,74.20
2018-08-25T05:21:07.401Z,73.90
2018-08-25T05:24:10.469Z,74.00
2018-08-25T05:27:13.533Z,74.00
2018-08-25T05:30:16.602Z,73.50
2018-08-25T05:33:19.694Z,73.20
2018-08-25T05:36:22.789Z,73.30
2018-08-25T05:39:25.860Z,72.90
2018-08-25T05:42:29.008Z,72.50
2018-08-25T05:45:32.074Z,72.30
2018-08-25T05:48:35.165Z,71.80
2018-08-25T05:51:38.277Z,71.70
2018-08-25T05:54:41.350Z,71.60
2018-08-25T05:57:44.542Z,70.90
2018-08-25T06:00:47.538Z,70.60
2018-08-25T06:03:50.758Z,70.00
2018-08-25T06:06:53.849Z,69.50
2018-08-25T06:09:56.925Z,68.50
2018-08-25T06:13:00.017Z,67.50
2018-08-25T06:16:03.114Z,66.10
2018-08-25T06:19:06.408Z,65.30
2018-08-25T06:22:09.486Z,65.60
2018-08-25T06:25:12.546Z,66.30
2018-08-25T06:28:15.605Z,67.20
2018-08-25T06:31:18.682Z,67.50
2018-08-25T06:34:21.793Z,67.50
2018-08-25T06:37:24.867Z,66.70
2018-08-25T06:40:27.961Z,64.70
2018-08-25T06:43:31.082Z,63.90
2018-08-25T06:46:34.154Z,64.50
2018-08-25T06:49:37.248Z,63.90
2018-08-25T06:52:40.367Z,64.20
2018-08-25T06:55:43.413Z,65.30
2018-08-25T06:58:46.489Z,65.10
2018-08-25T07:01:49.617Z,64.40
2018-08-25T07:04:52.742Z,64.80
2018-08-25T07:07:55.803Z,64.80
2018-08-25T07:10:58.897Z,63.20
2018-08-25T07:14:01.991Z,62.10
2018-08-25T07:17:05.084Z,61.50
2018-08-25T07:20:08.137Z,62.80
2018-08-25T07:23:11.205Z,63.10
2018-08-25T07:26:14.393Z,65.30
2018-08-25T07:32:47.382Z,67.20
2018-08-25T07:35:50.457Z,67.00
2018-08-25T07:38:53.523Z,67.60
2018-08-25T07:41:56.598Z,68.30
2018-08-25T07:44:59.666Z,68.60
2018-08-25T07:48:02.747Z,68.40
2018-08-25T07:51:05.837Z,68.10
2018-08-25T07:54:08.890Z,68.40
2018-08-25T07:57:11.962Z,68.60
2018-08-25T08:00:15.187Z,68.20
2018-08-25T08:03:28.155Z,67.80
2018-08-25T08:06:31.622Z,67.60
2018-08-25T08:09:34.681Z,67.60
2018-08-25T08:12:37.775Z,67.60
2018-08-25T08:15:40.857Z,68.40
2018-08-25T08:18:43.924Z,69.20
2018-08-25T08:21:47.038Z,69.30
2018-08-25T08:24:50.127Z,70.00
2018-08-25T08:27:53.217Z,70.10
2018-08-25T08:30:56.337Z,71.00
2018-08-25T08:33:59.426Z,73.40
2018-08-25T08:37:02.512Z,77.90
2018-08-25T08:40:09.500Z,80.60
2018-08-25T08:43:12.637Z,81.20
2018-08-25T08:46:19.975Z,82.10
2018-08-25T08:49:23.065Z,82.60
2018-08-25T08:52:26.147Z,82.10
2018-08-25T08:55:29.241Z,83.10
2018-08-25T08:58:32.339Z,83.40
2018-08-25T09:01:35.389Z,85.20
2018-08-25T09:04:38.474Z,87.00
2018-08-25T09:07:41.581Z,88.00
2018-08-25T09:10:44.669Z,90.10
2018-08-25T09:13:48.043Z,90.20
2018-08-25T09:16:51.114Z,90.20
2018-08-25T09:19:54.196Z,90.20
2018-08-25T09:23:06.950Z,90.00
2018-08-25T09:26:10.021Z,90.30
2018-08-25T09:29:13.102Z,90.30
2018-08-25T09:32:16.181Z,90.50
2018-08-25T09:35:19.292Z,90.60
2018-08-25T09:38:22.383Z,90.00
2018-08-25T09:41:25.454Z,88.50
2018-08-25T09:44:28.547Z,87.40
2018-08-25T09:47:31.971Z,88.00
2018-08-25T09:50:35.045Z,89.30
2018-08-25T09:53:38.217Z,88.50
2018-08-25T09:56:41.212Z,88.20
2018-08-25T09:59:44.304Z,86.20
2018-08-25T10:02:47.411Z,85.80
2018-08-25T10:05:50.577Z,84.30
2018-08-25T10:08:53.754Z,84.40
2018-08-25T10:11:56.830Z,84.50
2018-08-25T10:15:00.098Z,85.20
2018-08-25T10:18:03.174Z,84.80
2018-08-25T10:21:06.345Z,84.80
2018-08-25T10:24:09.679Z,83.30
2018-08-25T10:27:12.742Z,83.30
2018-08-25T10:30:15.818Z,83.90
2018-08-25T10:33:25.578Z,82.00
2018-08-25T10:36:28.638Z,81.20
2018-08-25T10:39:31.730Z,80.00
2018-08-25T10:42:34.837Z,79.80
2018-08-25T10:45:37.938Z,79.30
2018-08-25T10:48:41.016Z,78.50
2018-08-25T10:51:44.106Z,77.80
2018-08-25T10:54:47.181Z,75.80
2018-08-25T10:57:50.244Z,75.20
2018-08-25T11:00:53.405Z,74.70
2018-08-25T11:03:56.390Z,74.30
2018-08-25T11:06:59.461Z,73.10
2018-08-25T11:10:02.532Z,71.80
2018-08-25T11:13:05.635Z,70.40
2018-08-25T11:16:08.656Z,70.20
2018-08-25T11:19:11.773Z,72.20
2018-08-25T11:22:15.150Z,72.00
2018-08-25T11:25:18.286Z,74.10
2018-08-25T11:28:21.378Z,78.40
2018-08-25T11:31:24.426Z,81.40
2018-08-25T11:34:27.525Z,84.30
2018-08-25T11:37:30.673Z,84.80
2018-08-25T11:40:33.647Z,83.70
2018-08-25T11:43:36.725Z,81.20
2018-08-25T11:46:39.795Z,80.00
2018-08-25T11:49:43.294Z,77.60
2018-08-25T11:52:46.365Z,76.20
2018-08-25T11:55:49.446Z,76.70
2018-08-25T11:58:52.525Z,77.10
2018-08-25T12:01:55.605Z,75.30
2018-08-25T12:04:58.700Z,72.00
2018-08-25T12:08:01.757Z,70.80
2018-08-25T12:11:04.983Z,70.30
2018-08-25T12:14:08.060Z,69.00
2018-08-25T12:17:11.137Z,68.40
2018-08-25T12:20:14.219Z,67.80
2018-08-25T12:23:17.314Z,66.90
2018-08-25T12:26:20.394Z,66.10
2018-08-25T12:29:23.489Z,67.40
2018-08-25T12:32:26.545Z,68.70
2018-08-25T12:35:36.281Z,68.90
2018-08-25T12:38:39.353Z,69.00
2018-08-25T12:41:42.518Z,68.30
2018-08-25T12:44:45.557Z,69.10
2018-08-25T12:47:48.633Z,71.60
2018-08-25T12:50:51.722Z,73.30
2018-08-25T12:53:54.841Z,74.10
2018-08-25T12:56:57.925Z,76.20
2018-08-25T13:00:01.091Z,75.30
2018-08-25T13:03:04.191Z,75.40
2018-08-25T13:06:07.261Z,75.70
2018-08-25T13:09:11.589Z,75.50
2018-08-25T13:12:14.697Z,75.00
2018-08-25T13:15:17.778Z,74.80
2018-08-25T13:18:20.842Z,74.00
2018-08-25T13:21:23.902Z,74.00
2018-08-25T13:24:26.945Z,72.90
2018-08-25T13:27:30.021Z,72.20
2018-08-25T13:30:33.101Z,72.70
2018-08-25T13:33:36.249Z,72.60
2018-08-25T13:36:39.362Z,73.30
2018-08-25T13:39:42.434Z,72.90
2018-08-25T13:42:45.490Z,73.20
2018-08-25T13:45:48.569Z,73.90
2018-08-25T13:48:51.637Z,75.10
2018-08-25T13:51:54.699Z,76.30
2018-08-25T13:54:57.761Z,76.00
2018-08-25T13:58:01.817Z,75.60
2018-08-25T14:01:13.373Z,72.90
2018-08-25T14:04:16.436Z,71.40
2018-08-25T14:07:19.513Z,72.00
2018-08-25T14:10:22.629Z,71.40
2018-08-25T14:13:25.769Z,71.70
2018-08-25T14:16:28.943Z,71.70
2018-08-25T14:19:31.920Z,71.20
2018-08-25T14:22:35.903Z,71.20
2018-08-25T14:25:38.967Z,70.80
2018-08-25T14:28:42.131Z,71.40
2018-08-25T14:31:45.187Z,70.50
2018-08-25T14:34:48.278Z,68.90
2018-08-25T14:37:51.369Z,67.70
2018-08-25T14:40:54.514Z,66.00
2018-08-25T14:43:57.671Z,65.30
2018-08-25T14:47:00.752Z,65.80
2018-08-25T14:50:03.817Z,66.40
2018-08-25T14:53:06.970Z,67.70
2018-08-25T14:56:10.033Z,67.40
2018-08-25T14:59:13.097Z,68.70
2018-08-25T15:02:16.174Z,69.50
2018-08-25T15:05:25.437Z,68.90
2018-08-25T15:08:28.535Z,69.20
2018-08-25T15:11:31.602Z,68.90
2018-08-25T15:14:34.670Z,69.20
2018-08-25T15:17:37.759Z,68.30
2018-08-25T15:20:40.836Z,68.60
2018-08-25T15:23:43.920Z,67.50
2018-08-25T15:26:47.027Z,65.80
2018-08-25T15:29:50.109Z,64.30
2018-08-25T15:32:53.209Z,63.70
2018-08-25T15:35:56.297Z,61.90
2018-08-25T15:38:59.394Z,60.60
2018-08-25T15:42:02.518Z,60.60
2018-08-25T15:45:05.610Z,60.00
2018-08-25T15:48:08.702Z,60.10
2018-08-25T15:51:11.798Z,59.20
2018-08-25T15:54:14.866Z,58.90
2018-08-25T15:57:18.001Z,58.70
2018-08-25T16:00:21.066Z,58.80
2018-08-25T16:03:24.150Z,59.10
2018-08-25T16:06:27.236Z,59.60
2018-08-25T16:09:30.318Z,60.20
2018-08-25T16:12:33.494Z,60.50
2018-08-25T16:15:36.493Z,61.00
2018-08-25T16:18:39.606Z,61.40
2018-08-25T16:21:42.646Z,62.40
2018-08-25T16:24:45.801Z,62.90
2018-08-25T16:27:48.987Z,63.40
2018-08-25T16:30:52.133Z,67.40
2018-08-25T16:33:55.201Z,70.40
2018-08-25T16:36:58.372Z,69.50
2018-08-25T16:40:01.467Z,68.90
2018-08-25T16:43:04.559Z,67.80
2018-08-25T16:46:07.617Z,67.90
2018-08-25T16:49:10.693Z,67.60
2018-08-25T16:52:13.776Z,67.20
2018-08-25T16:55:16.881Z,67.60
2018-08-25T16:58:19.928Z,68.70
2018-08-25T17:01:23.117Z,70.10
2018-08-25T17:04:26.405Z,71.00
2018-08-25T17:07:29.461Z,71.30
2018-08-25T17:10:32.566Z,71.80
2018-08-25T17:13:35.653Z,71.80
2018-08-25T17:16:38.733Z,72.50
2018-08-25T17:19:42.021Z,72.90
2018-08-25T17:22:45.273Z,72.60
2018-08-25T17:25:48.351Z,72.50
2018-08-25T17:28:51.434Z,72.40
2018-08-25T17:31:54.565Z,72.70
2018-08-25T17:34:57.649Z,72.60
2018-08-25T17:38:00.726Z,73.00
2018-08-25T17:41:03.867Z,72.70
2018-08-25T17:44:06.988Z,72.20
2018-08-25T17:47:10.061Z,72.60
2018-08-25T17:50:13.449Z,73.00
2018-08-25T17:53:16.536Z,72.00
2018-08-25T17:56:19.631Z,72.60
2018-08-25T17:59:22.724Z,72.70
2018-08-25T18:02:25.838Z,72.70
2018-08-25T18:05:28.946Z,74.00
2018-08-25T18:08:32.037Z,74.00
2018-08-25T18:11:39.773Z,74.40
2018-08-25T18:14:42.868Z,74.50
2018-08-25T18:17:45.943Z,75.50
2018-08-25T18:20:48.999Z,75.50
2018-08-25T18:23:52.056Z,75.80
2018-08-25T18:26:55.905Z,76.40
2018-08-25T18:29:58.982Z,77.20
2018-08-25T18:33:02.075Z,78.00
2018-08-25T18:36:05.194Z,78.80
2018-08-25T18:39:10.426Z,79.00
2018-08-25T18:42:13.568Z,79.40
2018-08-25T18:45:16.633Z,79.60
2018-08-25T18:48:19.831Z,79.70
2018-08-25T18:51:22.754Z,79.90
2018-08-25T18:54:25.991Z,80.40
2018-08-25T18:57:29.085Z,80.90
2018-08-25T19:00:32.670Z,81.00
2018-08-25T19:03:35.775Z,81.60
2018-08-25T19:06:38.805Z,82.30
2018-08-25T19:09:41.877Z,83.00
2018-08-25T19:12:44.940Z,83.30
2018-08-25T19:15:48.018Z,83.90
2018-08-25T19:18:51.070Z,84.30
2018-08-25T19:21:54.174Z,84.90
2018-08-25T19:24:57.260Z,85.60
2018-08-25T19:28:00.322Z,86.00
2018-08-25T19:31:03.417Z,86.40
2018-08-25T19:34:06.494Z,87.00
2018-08-25T19:37:09.574Z,87.30
2018-08-25T19:40:12.652Z,87.40
2018-08-25T19:43:15.702Z,87.60
2018-08-25T19:46:18.842Z,88.20
2018-08-25T19:49:21.913Z,89.00
2018-08-25T19:52:25.010Z,89.60
2018-08-25T19:55:28.077Z,90.10
2018-08-25T19:58:31.185Z,90.50
2018-08-25T20:01:34.265Z,90.80
2018-08-25T20:04:37.345Z,91.30
2018-08-25T20:07:40.442Z,91.50
2018-08-25T20:10:43.547Z,91.80
2018-08-25T20:13:46.735Z,91.80
2018-08-25T20:16:49.758Z,91.90
2018-08-25T20:19:52.941Z,92.00
2018-08-25T20:22:56.046Z,92.20
2018-08-25T20:25:59.155Z,92.20
2018-08-25T20:29:02.221Z,92.40
2018-08-25T20:32:05.326Z,92.60
2018-08-25T20:35:08.641Z,92.70
2018-08-25T20:38:11.789Z,93.00
2018-08-25T20:41:14.909Z,93.20
2018-08-25T20:44:18.237Z,93.40
2018-08-25T20:47:21.322Z,93.50
2018-08-25T20:50:24.429Z,93.70
2018-08-25T20:53:27.547Z,94.20
2018-08-25T20:56:31.296Z,93.80
2018-08-25T20:59:34.374Z,94.00
2018-08-25T21:02:37.505Z,94.10
2018-08-25T21:05:40.573Z,94.10
2018-08-25T21:08:43.645Z,94.10
2018-08-25T21:11:46.711Z,94.20
2018-08-25T21:14:49.770Z,94.20
2018-08-25T21:17:52.837Z,94.20
2018-08-25T21:20:55.949Z,94.30
2018-08-25T21:23:59.034Z,94.30
2018-08-25T21:27:02.092Z,94.20
2018-08-25T21:30:06.859Z,94.30
2018-08-25T21:33:09.916Z,94.40
2018-08-25T21:36:12.977Z,94.40
2018-08-25T21:39:16.188Z,94.40
2018-08-25T21:42:19.589Z,94.50
2018-08-25T21:45:22.692Z,94.60
2018-08-25T21:48:25.753Z,94.70
2018-08-25T21:51:28.845Z,94.80
2018-08-25T21:54:31.894Z,94.50
2018-08-25T21:57:34.945Z,94.90
2018-08-25T22:00:42.241Z,94.50
2018-08-25T22:03:45.309Z,94.50
2018-08-25T22:06:48.371Z,94.30
2018-08-25T22:09:51.433Z,94.50
2018-08-25T22:12:54.509Z,94.50
2018-08-25T22:15:57.586Z,95.00
2018-08-25T22:19:00.678Z,94.70
2018-08-25T22:22:03.762Z,94.70
2018-08-25T22:25:06.800Z,94.80
2018-08-25T22:28:09.857Z,94.80
2018-08-25T22:31:13.075Z,94.80
2018-08-25T22:34:16.143Z,94.70
2018-08-25T22:37:19.183Z,94.60
2018-08-25T22:40:22.427Z,94.60
2018-08-25T22:43:25.498Z,94.60
2018-08-25T22:46:28.625Z,94.60
2018-08-25T22:49:31.701Z,94.70
2018-08-25T22:52:40.118Z,94.80
2018-08-25T22:55:43.193Z,95.00
2018-08-25T22:58:46.246Z,95.10
2018-08-25T23:01:49.329Z,95.10
2018-08-25T23:05:05.489Z,95.20
2018-08-25T23:08:08.569Z,95.30
2018-08-25T23:11:11.635Z,95.60
2018-08-25T23:14:14.697Z,95.40
2018-08-25T23:17:17.784Z,95.40
2018-08-25T23:20:20.842Z,95.40
2018-08-25T23:23:23.939Z,95.50
2018-08-25T23:26:27.233Z,95.60
2018-08-25T23:29:30.298Z,95.70
2018-08-25T23:32:33.390Z,95.70
2018-08-25T23:35:36.481Z,95.70
2018-08-25T23:38:39.574Z,95.80
2018-08-25T23:41:42.711Z,96.60
2018-08-25T23:44:45.765Z,96.60
2018-08-25T23:47:48.873Z,96.70
2018-08-25T23:50:51.946Z,96.90
2018-08-25T23:53:55.025Z,96.90
2018-08-25T23:57:04.582Z,97.20
